Time;durP1;ratioP1;P1;durP2;ratioP2;P2;SDS_P1;SDS_P2;PMS_P1;PMS_P2;Temp;Humidity;BMP_temperature;BMP_pressure;BME280_temperature;BME280_humidity;BME280_pressure;Samples;Min_cycle;Max_cycle;Signal;HPM_P1;HPM_P2
2022/05/18 06:41:35;;;;;;;12.85;8.73;;;18.50;99.90;;;;;;5173052;27;20649;-70
2022/05/18 06:44:04;;;;;;;14.60;8.73;;;18.40;99.90;;;;;;5189818;27;20054;-68
2022/05/18 06:46:31;;;;;;;11.40;8.48;;;18.50;99.90;;;;;;5154881;27;20161;-68
2022/05/18 06:48:57;;;;;;;12.23;8.07;;;18.60;99.90;;;;;;5173227;27;20050;-69
2022/05/18 06:51:29;;;;;;;13.10;9.23;;;18.70;99.90;;;;;;5154496;27;20050;-69
2022/05/18 06:53:55;;;;;;;11.85;7.93;;;18.70;99.90;;;;;;5172195;27;20038;-70
2022/05/18 06:56:24;;;;;;;16.45;8.60;;;18.80;99.90;;;;;;5171755;27;20093;-69
2022/05/18 06:58:51;;;;;;;10.30;9.00;;;18.80;99.90;;;;;;5172766;27;20488;-70
2022/05/18 07:01:18;;;;;;;9.85;8.00;;;18.90;99.90;;;;;;5172521;27;20413;-69
2022/05/18 07:03:44;;;;;;;9.57;8.25;;;19.00;99.90;;;;;;5172528;27;20481;-71
2022/05/18 07:06:11;;;;;;;10.02;7.88;;;19.00;99.90;;;;;;5172331;27;20408;-70
2022/05/18 07:08:38;;;;;;;15.18;8.98;;;19.10;99.90;;;;;;5172587;27;20042;-68
2022/05/18 07:11:04;;;;;;;12.73;8.77;;;19.20;99.90;;;;;;5172279;27;20038;-71
2022/05/18 07:13:36;;;;;;;11.85;8.05;;;19.30;99.90;;;;;;5171571;27;20496;-70
2022/05/18 07:16:03;;;;;;;10.60;7.82;;;19.30;99.90;;;;;;5168903;27;20049;-67
2022/05/18 07:18:31;;;;;;;12.50;7.78;;;19.40;99.90;;;;;;5136634;27;20074;-69
2022/05/18 07:20:58;;;;;;;12.07;8.18;;;19.50;99.90;;;;;;5153475;27;20046;-71
2022/05/18 07:23:26;;;;;;;9.02;7.65;;;19.50;99.90;;;;;;5172395;27;20053;-70
2022/05/18 07:25:55;;;;;;;10.57;8.27;;;19.60;99.90;;;;;;5172265;27;20125;-70
2022/05/18 07:28:22;;;;;;;13.48;8.82;;;19.70;99.90;;;;;;5172174;27;20046;-71
2022/05/18 07:30:51;;;;;;;9.13;7.45;;;19.70;99.90;;;;;;5172069;27;20488;-70
2022/05/18 07:33:20;;;;;;;10.93;8.68;;;19.80;99.90;;;;;;5152889;27;20527;-71
2022/05/18 07:35:46;;;;;;;10.57;7.75;;;19.90;99.90;;;;;;5171737;27;20049;-69
2022/05/18 07:38:12;;;;;;;10.00;6.60;;;19.80;99.90;;;;;;5171923;27;20557;-70
2022/05/18 07:40:37;;;;;;;;;;;20.00;99.90;;;;;;5153529;27;20100;-69
2022/05/18 07:43:03;;;;;;;13.85;6.70;;;19.90;99.90;;;;;;5171777;27;19970;-68
2022/05/18 07:45:29;;;;;;;11.05;8.30;;;20.00;99.90;;;;;;5171866;27;20091;-70
2022/05/18 07:47:55;;;;;;;12.68;7.78;;;20.10;99.90;;;;;;5171769;27;20043;-70
2022/05/18 07:50:22;;;;;;;15.90;8.85;;;20.10;99.90;;;;;;5171536;27;20484;-71
2022/05/18 07:52:49;;;;;;;10.68;6.00;;;20.20;99.90;;;;;;5140106;27;20043;-69
2022/05/18 07:55:15;;;;;;;8.55;6.80;;;20.20;99.90;;;;;;5157792;27;20042;-69
2022/05/18 07:57:41;;;;;;;9.38;7.45;;;20.30;99.90;;;;;;5157739;27;20441;-70
2022/05/18 08:00:08;;;;;;;16.25;8.52;;;20.30;99.90;;;;;;5157558;27;20082;-70
2022/05/18 08:02:35;;;;;;;10.27;7.85;;;20.40;99.90;;;;;;5157480;27;20121;-69
2022/05/18 08:05:05;;;;;;;10.73;7.78;;;20.50;99.90;;;;;;5157307;27;20046;-70
2022/05/18 08:07:31;;;;;;;10.18;7.88;;;20.50;99.90;;;;;;5157630;27;20043;-71
2022/05/18 08:15:26;;;;;;;11.63;7.55;;;20.80;99.90;;;;;;5138775;27;20145;-70
2022/05/18 08:17:52;;;;;;;10.88;7.60;;;20.80;99.90;;;;;;5157472;27;20043;-69
2022/05/18 08:20:19;;;;;;;;;;;20.90;99.90;;;;;;5138626;27;20047;-71
2022/05/18 08:22:45;;;;;;;;;;;21.00;99.90;;;;;;5139530;27;19919;-71
2022/05/18 08:25:13;;;;;;;11.93;7.10;;;21.00;99.90;;;;;;5157273;27;19919;-72
2022/05/18 08:27:41;;;;;;;20.05;8.60;;;21.10;99.90;;;;;;5157052;27;20409;-69
2022/05/18 08:30:08;;;;;;;11.13;7.60;;;21.20;99.90;;;;;;5156953;27;20116;-71
2022/05/18 08:32:34;;;;;;;11.05;7.90;;;21.30;99.90;;;;;;5156865;27;20042;-69
2022/05/18 08:35:16;;;;;;;10.52;7.15;;;21.30;99.90;;;;;;5156054;27;20050;-69
2022/05/18 08:37:45;;;;;;;11.15;7.68;;;21.40;99.90;;;;;;5156977;27;20042;-71
2022/05/18 08:40:37;;;;;;;9.13;7.13;;;21.50;99.90;;;;;;5156529;27;20084;-69
2022/05/18 08:43:06;;;;;;;8.88;6.50;;;21.50;99.90;;;;;;5156601;27;20125;-70
2022/05/18 08:45:36;;;;;;;11.65;8.38;;;21.50;99.90;;;;;;5156722;27;20125;-71
2022/05/18 08:48:19;;;;;;;12.02;6.60;;;21.60;99.90;;;;;;5156606;27;20477;-70
2022/05/18 08:50:45;;;;;;;10.43;6.32;;;21.70;99.90;;;;;;5156599;27;20126;-71
2022/05/18 08:53:11;;;;;;;;;;;21.70;99.90;;;;;;5156748;27;20043;-70
2022/05/18 08:56:01;;;;;;;7.90;6.22;;;21.80;99.90;;;;;;5138167;27;19919;-69
2022/05/18 08:58:30;;;;;;;9.38;6.63;;;21.90;99.90;;;;;;5156463;27;20096;-71
2022/05/18 09:00:59;;;;;;;7.15;5.10;;;22.00;99.90;;;;;;5156237;27;20503;-71
2022/05/18 09:03:33;;;;;;;15.77;5.13;;;22.10;99.90;;;;;;5155305;27;20133;-71
2022/05/18 09:06:09;;;;;;;8.35;5.40;;;22.10;99.90;;;;;;5156047;27;20407;-69
2022/05/18 09:08:42;;;;;;;8.60;5.18;;;22.20;99.90;;;;;;5156222;27;20452;-70
2022/05/18 09:11:14;;;;;;;7.35;4.28;;;22.30;99.90;;;;;;5156251;27;20050;-71
2022/05/18 09:13:40;;;;;;;6.43;3.80;;;22.30;99.90;;;;;;5156136;27;20039;-70
2022/05/18 09:16:19;;;;;;;;;;;22.40;99.90;;;;;;5156317;27;20042;-69
2022/05/18 09:19:05;;;;;;;9.25;4.28;;;22.50;99.90;;;;;;5155970;27;19965;-74
2022/05/18 09:21:38;;;;;;;10.20;4.38;;;22.60;99.90;;;;;;5155971;27;20046;-70
2022/05/18 09:24:28;;;;;;;7.00;5.88;;;22.70;99.90;;;;;;5155953;27;20046;-69
2022/05/18 09:27:11;;;;;;;10.35;4.78;;;22.80;99.90;;;;;;5155767;27;20047;-70
2022/05/18 09:29:41;;;;;;;6.90;3.88;;;22.90;99.90;;;;;;5155937;27;20041;-69
2022/05/18 09:32:19;;;;;;;9.68;3.85;;;23.00;99.90;;;;;;5155897;27;20050;-69
2022/05/18 09:35:07;;;;;;;5.97;4.45;;;23.00;99.90;;;;;;5155936;27;20453;-70
2022/05/18 09:37:46;;;;;;;5.18;3.40;;;23.20;99.90;;;;;;5155206;27;20504;-70
2022/05/18 09:40:26;;;;;;;7.68;3.95;;;23.30;99.90;;;;;;5155599;27;20051;-70
2022/05/18 09:43:04;;;;;;;5.40;3.00;;;23.40;99.90;;;;;;5155700;27;20113;-71
2022/05/18 09:45:34;;;;;;;4.53;3.33;;;23.40;99.90;;;;;;5155651;27;20054;-69
2022/05/18 09:48:05;;;;;;;6.82;3.58;;;23.50;99.90;;;;;;5155577;27;20042;-70
2022/05/18 09:50:31;;;;;;;5.13;3.20;;;23.60;99.90;;;;;;5155667;27;20042;-70
2022/05/18 09:52:57;;;;;;;;;;;23.60;99.90;;;;;;5119906;27;20059;-71
2022/05/18 09:55:26;;;;;;;5.90;2.97;;;23.80;99.90;;;;;;5155653;27;19926;-71
2022/05/18 09:58:06;;;;;;;6.13;3.40;;;23.90;99.90;;;;;;5155553;27;20046;-71
2022/05/18 10:00:34;;;;;;;7.85;3.35;;;24.00;99.90;;;;;;5155234;27;20039;-71
2022/05/18 10:08:47;;;;;;;6.03;3.97;;;24.20;99.90;;;;;;5155233;27;20431;-71
2022/05/18 10:11:17;;;;;;;5.47;3.70;;;24.30;99.90;;;;;;5155445;27;20073;-71
2022/05/18 10:14:00;;;;;;;6.70;4.18;;;24.40;99.90;;;;;;5155432;27;20485;-71
2022/05/18 10:16:36;;;;;;;7.68;3.90;;;24.40;99.90;;;;;;5155154;27;20479;-70
2022/05/18 10:19:04;;;;;;;7.80;5.05;;;24.40;99.90;;;;;;5155153;27;20122;-70
2022/05/18 10:21:56;;;;;;;9.40;5.28;;;24.40;99.90;;;;;;5154765;27;20038;-71
2022/05/18 10:24:42;;;;;;;5.93;4.05;;;24.40;99.90;;;;;;5136940;27;20050;-71
2022/05/18 10:27:10;;;;;;;7.95;5.88;;;24.40;99.90;;;;;;5136641;27;20070;-72
2022/05/18 10:29:36;;;;;;;6.00;4.60;;;24.50;99.90;;;;;;5136785;27;20054;-71
2022/05/18 10:32:11;;;;;;;6.53;4.50;;;24.50;99.90;;;;;;5154865;27;20062;-70
2022/05/18 10:34:50;;;;;;;10.25;5.68;;;24.50;99.90;;;;;;5155193;27;20050;-70
2022/05/18 10:37:37;;;;;;;9.70;4.63;;;24.60;99.90;;;;;;5155128;27;20121;-71
2022/05/18 10:40:18;;;;;;;10.48;5.10;;;24.60;99.90;;;;;;5136092;27;20051;-70
2022/05/18 10:42:48;;;;;;;6.55;5.10;;;24.70;99.90;;;;;;5154042;27;20042;-69
2022/05/18 10:45:26;;;;;;;9.18;5.20;;;24.70;99.90;;;;;;5154767;27;20039;-72
2022/05/18 10:47:53;;;;;;;11.32;5.22;;;24.70;99.90;;;;;;5154933;27;20050;-70
2022/05/18 10:50:25;;;;;;;6.47;5.18;;;24.70;99.90;;;;;;5154836;27;20047;-73
2022/05/18 10:53:01;;;;;;;6.68;3.42;;;24.80;99.90;;;;;;5154784;27;20054;-70
2022/05/18 10:55:30;;;;;;;6.03;3.42;;;24.80;99.90;;;;;;5136940;27;20537;-72
2022/05/18 10:58:03;;;;;;;7.28;4.55;;;24.90;99.90;;;;;;5154938;27;20411;-70
2022/05/18 11:01:16;;;;;;;12.63;4.05;;;25.00;99.90;;;;;;5154058;27;20035;-70
2022/05/18 11:04:19;;;;;;;6.88;4.90;;;25.00;99.90;;;;;;5044314;28;20064;-70
2022/05/18 11:06:45;;;;;;;7.97;5.50;;;25.10;99.90;;;;;;5050270;28;20048;-70
2022/05/18 11:09:25;;;;;;;7.10;4.63;;;25.10;99.90;;;;;;5033262;28;20045;-71
2022/05/18 11:12:39;;;;;;;6.72;4.68;;;25.10;99.90;;;;;;5050515;28;20041;-70
2022/05/18 11:15:07;;;;;;;7.00;5.03;;;25.20;99.90;;;;;;4991280;28;20061;-69
2022/05/18 11:17:36;;;;;;;5.72;4.88;;;25.20;99.90;;;;;;4991390;28;20053;-72
2022/05/18 11:20:28;;;;;;;8.27;5.15;;;25.30;99.90;;;;;;4991269;28;20520;-71
2022/05/18 11:23:24;;;;;;;7.72;4.15;;;25.30;99.90;;;;;;4975151;28;20116;-70
2022/05/18 11:26:25;;;;;;;6.10;4.88;;;25.30;99.90;;;;;;4990721;28;20141;-70
2022/05/18 11:29:16;;;;;;;4.88;3.55;;;25.40;99.90;;;;;;4995005;28;20054;-70
2022/05/18 11:32:02;;;;;;;7.30;4.18;;;25.50;99.90;;;;;;4994852;28;20063;-72
2022/05/18 11:34:46;;;;;;;6.65;3.85;;;25.50;99.90;;;;;;4978688;28;20069;-70
2022/05/18 11:37:29;;;;;;;7.85;3.13;;;25.50;99.90;;;;;;4994605;28;20046;-71
2022/05/18 11:40:13;;;;;;;6.22;3.40;;;25.50;99.90;;;;;;5020730;28;20060;-71
2022/05/18 11:43:25;;;;;;;5.03;4.10;;;25.50;99.90;;;;;;5057412;28;20061;-70
2022/05/18 11:46:12;;;;;;;6.90;3.53;;;25.60;99.90;;;;;;5073869;28;20064;-73
2022/05/18 11:49:01;;;;;;;9.02;3.85;;;25.60;99.90;;;;;;5073931;28;20483;-71
2022/05/18 11:51:55;;;;;;;9.15;3.92;;;25.60;99.90;;;;;;5083615;28;20130;-70
2022/05/18 11:54:26;;;;;;;9.50;4.32;;;25.80;99.90;;;;;;5116619;28;20390;-71
2022/05/18 11:57:17;;;;;;;6.18;3.97;;;25.80;99.90;;;;;;5116663;28;20077;-71
2022/05/18 12:00:03;;;;;;;6.88;4.35;;;25.80;99.90;;;;;;5116493;28;20040;-72
2022/05/18 12:02:48;;;;;;;7.18;4.10;;;25.70;99.90;;;;;;5115489;28;20142;-71
2022/05/18 12:05:47;;;;;;;7.93;4.35;;;25.60;99.90;;;;;;5116563;28;20459;-71
2022/05/18 12:08:42;;;;;;;8.00;4.13;;;25.80;99.90;;;;;;5116310;28;20039;-71
2022/05/18 12:11:22;;;;;;;7.68;4.30;;;25.80;99.90;;;;;;5115321;28;20112;-70
2022/05/18 12:14:14;;;;;;;5.88;3.60;;;25.90;99.90;;;;;;5116419;28;20413;-71
2022/05/18 12:16:44;;;;;;;5.78;3.47;;;25.90;99.90;;;;;;5092286;28;20486;-72
2022/05/18 12:19:40;;;;;;;6.93;3.00;;;25.90;99.90;;;;;;5116083;28;20079;-71
2022/05/18 12:22:14;;;;;;;6.90;3.40;;;25.90;99.90;;;;;;5114767;28;20056;-71
2022/05/18 12:24:44;;;;;;;6.68;2.72;;;25.90;99.90;;;;;;5116131;28;20051;-73
2022/05/18 12:27:11;;;;;;;4.38;2.47;;;26.00;99.90;;;;;;5115989;28;20047;-72
2022/05/18 12:29:38;;;;;;;2.90;2.22;;;26.00;99.90;;;;;;5115942;28;20124;-72
2022/05/18 12:32:04;;;;;;;6.47;2.55;;;26.00;99.90;;;;;;5116187;28;20075;-69
2022/05/18 12:34:36;;;;;;;7.60;2.85;;;26.00;99.90;;;;;;5116186;28;20406;-72
2022/05/18 12:37:13;;;;;;;4.95;2.90;;;26.00;99.90;;;;;;5115736;28;20040;-70
2022/05/18 12:39:49;;;;;;;5.57;3.17;;;26.00;99.90;;;;;;5116180;27;20044;-71
2022/05/18 12:42:24;;;;;;;7.70;3.90;;;26.00;99.90;;;;;;5156893;27;20496;-72
2022/05/18 12:44:55;;;;;;;4.93;3.17;;;26.10;99.90;;;;;;5157122;27;20043;-71
2022/05/18 12:47:39;;;;;;;6.22;3.33;;;26.10;99.90;;;;;;5138718;27;20039;-71
2022/05/18 12:50:36;;;;;;;7.47;3.17;;;26.10;99.90;;;;;;5156948;27;20043;-73
2022/05/18 12:53:11;;;;;;;10.38;3.75;;;26.20;99.90;;;;;;5052601;28;20056;-69
2022/05/18 12:55:44;;;;;;;7.30;3.50;;;26.10;99.90;;;;;;5036331;28;20148;-70
2022/05/18 12:58:10;;;;;;;8.43;3.90;;;26.10;99.90;;;;;;5052580;28;20063;-71
2022/05/18 13:00:56;;;;;;;6.25;4.10;;;26.10;99.90;;;;;;5052422;28;20049;-70
2022/05/18 13:03:48;;;;;;;8.60;3.70;;;26.10;99.90;;;;;;5052498;28;20069;-71
2022/05/18 13:06:35;;;;;;;9.52;3.33;;;26.20;99.90;;;;;;5052436;28;20053;-71
2022/05/18 13:09:22;;;;;;;5.13;3.20;;;26.20;99.90;;;;;;5052430;28;20530;-70
2022/05/18 13:12:10;;;;;;;6.13;4.15;;;26.20;99.90;;;;;;5052316;28;20060;-71
2022/05/18 13:14:43;;;;;;;8.40;5.00;;;26.10;99.90;;;;;;5052285;28;20131;-71
2022/05/18 13:17:11;;;;;;;8.85;4.88;;;26.00;99.90;;;;;;5035789;28;20489;-69
2022/05/18 13:19:36;;;;;;;7.28;4.10;;;26.00;99.90;;;;;;5035567;28;20095;-71
2022/05/18 13:22:39;;;;;;;7.78;3.83;;;26.00;99.90;;;;;;5018496;28;20057;-70
2022/05/18 13:25:06;;;;;;;7.00;4.32;;;26.00;99.90;;;;;;5052049;28;20103;-71
2022/05/18 13:27:45;;;;;;;6.93;3.70;;;26.00;99.90;;;;;;5052067;28;20045;-70
2022/05/18 13:30:23;;;;;;;7.50;4.40;;;26.10;99.90;;;;;;5099586;27;20058;-71
2022/05/18 13:32:50;;;;;;;10.40;4.50;;;26.10;99.90;;;;;;5156198;27;20105;-72
2022/05/18 13:35:25;;;;;;;5.22;3.60;;;26.10;99.90;;;;;;5156106;27;20054;-72
2022/05/18 13:38:08;;;;;;;4.20;3.17;;;26.10;99.90;;;;;;5137597;27;20488;-72
2022/05/18 13:40:35;;;;;;;3.90;3.10;;;26.10;99.90;;;;;;5155864;27;20054;-72
2022/05/18 13:43:07;;;;;;;6.20;3.30;;;26.10;99.90;;;;;;5155381;27;20106;-70
2022/05/18 13:45:34;;;;;;;6.57;3.00;;;26.10;99.90;;;;;;5137666;27;20039;-73
2022/05/18 13:48:00;;;;;;;5.55;3.20;;;26.10;99.90;;;;;;5155849;27;20054;-69
2022/05/18 13:50:35;;;;;;;7.05;3.97;;;26.00;99.90;;;;;;5155251;27;20046;-71
2022/05/18 13:53:05;;;;;;;6.10;4.13;;;25.90;99.90;;;;;;5137215;27;20483;-70
2022/05/18 13:55:38;;;;;;;7.90;4.97;;;25.80;99.90;;;;;;5155560;27;20382;-70
2022/05/18 13:58:07;;;;;;;7.40;6.05;;;25.70;99.90;;;;;;5155682;27;20508;-70
2022/05/18 14:00:40;;;;;;;17.63;10.07;;;25.60;99.90;;;;;;5155530;27;20040;-72
2022/05/18 14:03:06;;;;;;;15.45;9.90;;;25.50;99.90;;;;;;5155515;27;20603;-70
2022/05/18 14:05:34;;;;;;;14.88;10.43;;;25.40;99.90;;;;;;5155166;27;20042;-69
2022/05/18 14:08:13;;;;;;;17.10;11.02;;;25.30;99.90;;;;;;5155128;27;20054;-71
2022/05/18 14:10:39;;;;;;;15.13;10.95;;;25.30;99.90;;;;;;5155502;27;20045;-69
2022/05/18 14:13:05;;;;;;;16.67;11.88;;;25.20;99.90;;;;;;5155484;27;20053;-69
2022/05/18 14:15:36;;;;;;;17.63;12.82;;;25.10;99.90;;;;;;5155342;27;20179;-75
2022/05/18 14:18:05;;;;;;;22.60;14.98;;;25.00;99.90;;;;;;5155301;27;20034;-69
2022/05/18 14:20:37;;;;;;;21.45;15.05;;;24.90;99.90;;;;;;5155103;27;20126;-71
2022/05/18 14:23:07;;;;;;;20.48;15.18;;;24.80;99.90;;;;;;5155003;27;20077;-70
2022/05/18 14:25:42;;;;;;;19.92;15.75;;;24.80;99.90;;;;;;5155277;27;20050;-74
2022/05/18 14:28:12;;;;;;;26.27;17.50;;;24.70;99.90;;;;;;5154954;27;20557;-72
2022/05/18 14:30:44;;;;;;;24.10;16.77;;;24.60;99.90;;;;;;5155028;27;20072;-71
2022/05/18 14:33:32;;;;;;;24.02;18.58;;;24.60;99.90;;;;;;5154996;27;20078;-70
2022/05/18 14:36:05;;;;;;;26.65;18.55;;;24.50;99.90;;;;;;5155152;27;20099;-73
2022/05/18 14:38:35;;;;;;;24.83;19.35;;;24.50;99.90;;;;;;5154987;27;20043;-72
2022/05/18 14:41:07;;;;;;;24.25;20.65;;;24.40;99.90;;;;;;5154985;27;20488;-71
2022/05/18 14:43:34;;;;;;;27.92;20.95;;;24.30;99.90;;;;;;5136697;27;20051;-75
2022/05/18 14:46:11;;;;;;;26.73;19.92;;;24.30;99.90;;;;;;5154831;27;20039;-72
2022/05/18 14:48:47;;;;;;;30.42;23.30;;;24.20;99.90;;;;;;5136858;27;20074;-70
2022/05/18 14:51:30;;;;;;;;;;;24.10;99.90;;;;;;5155476;27;20050;-70
2022/05/18 14:53:59;;;;;;;29.85;21.88;;;24.00;99.90;;;;;;5154902;27;19923;-71
2022/05/18 14:56:30;;;;;;;26.98;23.23;;;23.90;99.90;;;;;;5154804;27;20038;-72
2022/05/18 14:59:02;;;;;;;35.05;24.50;;;23.90;99.90;;;;;;5154964;27;20045;-70
2022/05/18 15:01:41;;;;;;;29.98;24.30;;;23.80;99.90;;;;;;5155603;27;20035;-70
2022/05/18 15:04:31;;;;;;;37.15;26.25;;;23.70;99.90;;;;;;5158992;27;20043;-71
2022/05/18 15:07:04;;;;;;;33.00;26.05;;;23.70;99.90;;;;;;5158787;27;20038;-71
2022/05/18 15:10:01;;;;;;;36.80;27.05;;;23.80;99.90;;;;;;5158944;27;20073;-73
2022/05/18 15:12:31;;;;;;;35.60;26.65;;;23.70;99.90;;;;;;5157718;27;20106;-71
2022/05/18 15:15:48;;;;;;;36.92;28.27;;;23.70;99.90;;;;;;5158689;27;20034;-72
2022/05/18 15:18:29;;;;;;;35.33;28.20;;;23.80;99.90;;;;;;5054439;28;20190;-71
2022/05/18 15:21:18;;;;;;;35.33;28.73;;;23.80;99.90;;;;;;5054306;28;20610;-73
2022/05/18 15:23:49;;;;;;;42.03;30.08;;;23.80;99.90;;;;;;5052814;28;20132;-69
2022/05/18 15:26:21;;;;;;;34.40;27.17;;;23.80;99.90;;;;;;5053142;28;20044;-72
2022/05/18 15:28:54;;;;;;;32.22;26.15;;;23.90;99.90;;;;;;5051543;28;20126;-71
2022/05/18 15:31:29;;;;;;;34.85;27.65;;;23.90;99.90;;;;;;5060001;28;20127;-70
2022/05/18 15:34:09;;;;;;;37.03;28.55;;;23.90;99.90;;;;;;5052782;28;20061;-70
2022/05/18 15:36:35;;;;;;;41.95;29.10;;;24.00;99.90;;;;;;5054079;28;20132;-70
2022/05/18 15:39:01;;;;;;;32.88;27.65;;;24.00;99.90;;;;;;5054112;28;20131;-70
2022/05/18 15:41:28;;;;;;;37.08;27.05;;;24.00;99.90;;;;;;5053175;28;20048;-71
2022/05/18 15:43:54;;;;;;;34.22;25.90;;;24.10;99.90;;;;;;5053081;28;20056;-72
2022/05/18 15:46:42;;;;;;;34.80;27.67;;;24.10;99.90;;;;;;5053499;28;20045;-72
2022/05/18 15:49:10;;;;;;;33.22;26.55;;;24.00;99.90;;;;;;5043354;28;20192;-72
2022/05/18 15:51:36;;;;;;;35.42;25.58;;;24.00;99.90;;;;;;5052826;28;20108;-71
2022/05/18 15:54:06;;;;;;;30.80;24.17;;;23.90;99.90;;;;;;5113328;27;20122;-72
2022/05/18 15:56:37;;;;;;;37.72;24.73;;;23.90;99.90;;;;;;5156773;27;20117;-71
2022/05/18 15:59:03;;;;;;;30.30;20.88;;;23.70;99.90;;;;;;5157310;27;20117;-71
2022/05/18 16:01:29;;;;;;;29.13;22.23;;;23.70;99.90;;;;;;5157308;27;20136;-74
2022/05/18 16:03:55;;;;;;;32.50;22.30;;;23.70;99.90;;;;;;5157172;27;20109;-73
2022/05/18 16:06:29;;;;;;;37.20;23.95;;;23.70;99.90;;;;;;5157997;27;20206;-73
2022/05/18 16:08:57;;;;;;;31.67;23.17;;;23.60;99.90;;;;;;5157226;27;20046;-72
2022/05/18 16:11:26;;;;;;;28.48;21.52;;;23.60;99.90;;;;;;5156480;27;20039;-72
2022/05/18 16:13:52;;;;;;;29.52;22.30;;;23.50;99.90;;;;;;5156468;27;20085;-73
2022/05/18 16:16:17;;;;;;;28.85;22.50;;;23.40;99.90;;;;;;5138530;27;20070;-70
2022/05/18 16:18:43;;;;;;;31.08;23.52;;;23.30;99.90;;;;;;5156975;27;20493;-70
2022/05/18 16:21:12;;;;;;;;;;;23.30;99.90;;;;;;5157610;27;20465;-70
2022/05/18 16:23:37;;;;;;;35.30;24.38;;;23.20;99.90;;;;;;5157219;27;19960;-70
2022/05/18 16:26:03;;;;;;;30.30;22.35;;;23.10;99.90;;;;;;5157035;27;20460;-71
2022/05/18 16:28:29;;;;;;;;;;;23.10;99.90;;;;;;5139113;27;20415;-70
2022/05/18 16:30:57;;;;;;;35.53;23.05;;;22.90;99.90;;;;;;5156755;27;19919;-71
2022/05/18 16:33:27;;;;;;;29.17;21.88;;;22.80;99.90;;;;;;5156943;27;20057;-70
2022/05/18 16:35:54;;;;;;;33.42;22.33;;;22.80;99.90;;;;;;5138213;27;20503;-71
2022/05/18 16:38:20;;;;;;;30.45;22.40;;;22.70;99.90;;;;;;5156926;27;20058;-71
2022/05/18 16:40:46;;;;;;;;;;;22.70;99.90;;;;;;5157024;27;20058;-73
2022/05/18 16:43:11;;;;;;;31.67;21.58;;;22.70;99.90;;;;;;5139468;27;20017;-74
2022/05/18 16:45:37;;;;;;;;;;;22.60;99.90;;;;;;5156704;27;20485;-71
2022/05/18 16:48:03;;;;;;;25.20;19.15;;;22.60;99.90;;;;;;5120734;27;19972;-73
2022/05/18 16:50:28;;;;;;;31.98;20.75;;;22.50;99.90;;;;;;5156581;27;20043;-73
2022/05/18 16:52:54;;;;;;;;;;;22.30;99.90;;;;;;5138476;27;20043;-74
2022/05/18 16:55:20;;;;;;;29.40;21.20;;;22.30;99.90;;;;;;5156382;27;19926;-74
2022/05/18 16:57:47;;;;;;;26.38;20.38;;;22.20;99.90;;;;;;5156040;27;20635;-72
2022/05/18 17:00:15;;;;;;;28.63;19.92;;;22.10;99.90;;;;;;5155762;27;20045;-73
2022/05/18 17:02:41;;;;;;;26.52;19.20;;;22.00;99.90;;;;;;5156294;27;20038;-72
2022/05/18 17:08:43;;;;;;;25.20;18.70;;;21.80;99.90;;;;;;5156496;27;19919;-73
2022/05/18 17:10:38;;;;;;;27.95;19.30;;;21.70;99.90;;;;;;5156245;27;20049;-72
2022/05/18 17:13:04;;;;;;;;;;;21.60;99.90;;;;;;5155644;27;20035;-73
2022/05/18 17:15:30;;;;;;;27.48;17.70;;;21.50;99.90;;;;;;5155661;27;19931;-72
2022/05/18 17:17:55;;;;;;;;;;;21.40;99.90;;;;;;5156520;27;20049;-73
2022/05/18 17:20:21;;;;;;;32.33;19.35;;;21.30;99.90;;;;;;5155882;27;19979;-72
2022/05/18 17:22:48;;;;;;;;;;;21.20;99.90;;;;;;5156056;27;20042;-73
2022/05/18 17:25:14;;;;;;;25.42;18.33;;;21.20;99.90;;;;;;5136748;27;20010;-73
2022/05/18 17:27:39;;;;;;;;;;;21.10;99.90;;;;;;5155863;27;20066;-72
2022/05/18 17:30:10;;;;;;;27.90;20.40;;;21.00;99.90;;;;;;5155432;27;19919;-72
2022/05/18 17:32:46;;;;;;;29.75;20.48;;;20.90;99.90;;;;;;5155524;27;20088;-74
2022/05/18 17:35:17;;;;;;;32.33;20.77;;;20.80;99.90;;;;;;5152579;27;20073;-73
2022/05/18 17:37:44;;;;;;;28.77;19.48;;;20.70;99.90;;;;;;5155045;27;20085;-73
2022/05/18 17:40:11;;;;;;;28.95;19.80;;;20.60;99.90;;;;;;5136993;27;20050;-70
2022/05/18 17:42:36;;;;;;;32.42;20.73;;;20.50;99.90;;;;;;5155053;27;20053;-72
2022/05/18 17:45:03;;;;;;;34.45;20.35;;;20.40;99.90;;;;;;5155654;27;20046;-70
2022/05/18 17:47:29;;;;;;;28.45;19.90;;;20.40;99.90;;;;;;5135951;27;20129;-73
2022/05/18 17:49:56;;;;;;;26.35;19.48;;;20.30;99.90;;;;;;5155211;27;20437;-71
2022/05/18 17:52:24;;;;;;;25.00;18.75;;;20.20;99.90;;;;;;5155353;27;20111;-71
2022/05/18 17:54:52;;;;;;;27.83;19.27;;;20.10;99.90;;;;;;5154968;27;20101;-71
2022/05/18 17:57:20;;;;;;;28.13;20.73;;;20.10;99.90;;;;;;5154735;27;20043;-72
2022/05/18 17:59:46;;;;;;;30.90;20.98;;;20.00;99.90;;;;;;5155276;27;20054;-73
2022/05/18 18:02:15;;;;;;;;;;;19.90;99.90;;;;;;5155487;27;20074;-73
2022/05/18 18:04:42;;;;;;;26.80;18.63;;;19.90;99.90;;;;;;5136563;27;19963;-72
2022/05/18 18:07:09;;;;;;;31.15;18.63;;;19.80;99.90;;;;;;5154914;27;20068;-73
2022/05/18 18:09:35;;;;;;;25.52;18.75;;;19.80;99.90;;;;;;5154611;27;20043;-71
2022/05/18 18:12:01;;;;;;;23.50;18.77;;;19.70;99.90;;;;;;5136666;27;20050;-69
2022/05/18 18:14:27;;;;;;;27.73;18.60;;;19.70;99.90;;;;;;5154633;27;20047;-70
2022/05/18 18:16:53;;;;;;;32.38;20.27;;;19.70;99.90;;;;;;5154546;27;20043;-70
2022/05/18 18:19:20;;;;;;;;;;;19.70;99.90;;;;;;5155467;27;20051;-70
2022/05/18 18:21:46;;;;;;;26.48;17.80;;;19.60;99.90;;;;;;5157656;27;19923;-70
2022/05/18 18:24:14;;;;;;;;;;;19.60;99.90;;;;;;5155004;27;20053;-71
2022/05/18 18:26:40;;;;;;;26.95;18.90;;;19.60;99.90;;;;;;5135125;27;20395;-69
2022/05/18 18:29:06;;;;;;;25.20;18.52;;;19.50;99.90;;;;;;5154655;27;20038;-71
2022/05/18 18:31:32;;;;;;;31.80;19.77;;;19.50;99.90;;;;;;5155066;27;20046;-72
2022/05/18 18:33:58;;;;;;;31.15;19.45;;;19.50;99.90;;;;;;5145361;27;20042;-70
2022/05/18 18:36:28;;;;;;;32.47;20.48;;;19.40;99.90;;;;;;5154766;27;20046;-70
2022/05/18 18:38:54;;;;;;;30.52;19.77;;;19.40;99.90;;;;;;5169527;27;20058;-69
2022/05/18 18:41:21;;;;;;;24.63;18.67;;;19.40;99.90;;;;;;5153749;27;20042;-71
2022/05/18 18:43:47;;;;;;;31.17;17.67;;;19.40;99.90;;;;;;5154179;27;20046;-72
2022/05/18 18:48:57;;;;;;;27.45;18.73;;;19.30;99.90;;;;;;5154501;27;20412;-70
2022/05/18 18:56:57;;;;;;;25.58;17.85;;;19.20;99.90;;;;;;5146149;27;20125;-70
2022/05/18 18:59:23;;;;;;;28.40;18.90;;;19.10;99.90;;;;;;5154340;27;20121;-70
2022/05/18 19:01:49;;;;;;;26.90;18.55;;;19.10;99.90;;;;;;5154185;27;20038;-71
2022/05/18 19:04:15;;;;;;;;;;;19.10;99.90;;;;;;5154629;27;20404;-70
2022/05/18 19:06:42;;;;;;;28.48;17.77;;;19.10;99.90;;;;;;5153730;27;19919;-71
2022/05/18 19:09:09;;;;;;;25.85;17.67;;;19.00;99.90;;;;;;5154319;27;20046;-69
2022/05/18 19:11:38;;;;;;;22.55;16.17;;;19.00;99.90;;;;;;5154181;27;20042;-68
2022/05/18 19:14:05;;;;;;;28.60;17.52;;;18.90;99.90;;;;;;5154721;27;20111;-69
2022/05/18 19:16:31;;;;;;;29.08;16.48;;;18.90;99.90;;;;;;5154593;27;20050;-72
2022/05/18 19:18:58;;;;;;;24.92;16.95;;;18.90;99.90;;;;;;5154602;27;20047;-68
2022/05/18 19:21:23;;;;;;;24.90;18.45;;;18.80;99.90;;;;;;5154261;27;20039;-71
2022/05/18 19:23:50;;;;;;;26.52;17.92;;;18.80;99.90;;;;;;5154272;27;20042;-71
2022/05/18 19:26:17;;;;;;;26.27;17.98;;;18.70;99.90;;;;;;5136012;27;20050;-69
2022/05/18 19:28:45;;;;;;;27.35;19.42;;;18.70;99.90;;;;;;5154090;27;20082;-70
2022/05/18 19:31:11;;;;;;;23.35;18.80;;;18.60;99.90;;;;;;5133750;28;20048;-71
2022/05/18 19:33:37;;;;;;;36.15;20.40;;;18.60;99.90;;;;;;5132394;27;20513;-68
2022/05/18 19:36:04;;;;;;;32.28;20.98;;;18.70;99.90;;;;;;5153753;27;20039;-70
2022/05/18 19:38:31;;;;;;;28.70;19.38;;;18.60;99.90;;;;;;5152782;27;20518;-69
2022/05/18 19:40:57;;;;;;;25.50;19.80;;;18.60;99.90;;;;;;5153292;27;20408;-69
2022/05/18 19:43:28;;;;;;;29.85;20.20;;;18.60;99.90;;;;;;5154390;27;20047;-71
2022/05/18 19:45:57;;;;;;;33.83;20.42;;;18.50;99.90;;;;;;5153853;27;20100;-68
2022/05/18 19:48:27;;;;;;;27.55;19.52;;;18.50;99.90;;;;;;5156280;27;20461;-69
2022/05/18 19:50:53;;;;;;;27.35;19.25;;;18.50;99.90;;;;;;5158329;27;20039;-69
2022/05/18 19:53:19;;;;;;;27.70;20.48;;;18.40;99.90;;;;;;5157863;27;20473;-69
2022/05/18 19:55:49;;;;;;;29.50;22.23;;;18.40;99.90;;;;;;5157875;27;20038;-71
2022/05/18 19:58:34;;;;;;;26.63;20.92;;;18.40;99.90;;;;;;5158023;27;20085;-69
2022/05/18 20:01:02;;;;;;;28.30;20.55;;;18.30;99.90;;;;;;5157695;27;20042;-70
2022/05/18 20:03:28;;;;;;;29.48;19.98;;;18.30;99.90;;;;;;5157853;27;20046;-72
2022/05/18 20:05:55;;;;;;;26.08;19.67;;;18.30;99.90;;;;;;5157519;27;20039;-70
2022/05/18 20:08:21;;;;;;;;;;;18.20;99.90;;;;;;5157761;27;20435;-72
2022/05/18 20:10:49;;;;;;;29.73;21.73;;;18.20;99.90;;;;;;5136704;27;20014;-72
2022/05/18 20:13:20;;;;;;;34.47;22.58;;;18.10;99.90;;;;;;5153011;27;20439;-70